Aviation Digital Data Service (ADDS)

Output produced by METARs form (0317 UTC 18 June 2019)
found at http://www.aviationweather.gov/metar/data/
 
Forecast for: AMD
Text: TAF AMD ETNN 171525Z 1714/1723 11005KT 9999 NSW SCT050 BKN280 CANCEL 1525Z BY ETGL
Forecast period: 1400 to 2300 UTC 17 June 2019
Forecast type: FROM: standard forecast or significant change
Winds: from the ESE (110 degrees) at 6 MPH (5 knots; 2.6 m/s)
Visibility: 6 or more miles 10+ km)
Ceiling: 28000 feet AGL
Clouds: scattered clouds at 5000 feet AGL
broken clouds at 28000 feet AGL
Weather: NSW  (no significant weather)